Time;durP1;ratioP1;P1;durP2;ratioP2;P2;SDS_P1;SDS_P2;PMS_P1;PMS_P2;Temp;Humidity;BMP_temperature;BMP_pressure;BME280_temperature;BME280_humidity;BME280_pressure;Samples;Min_cycle;Max_cycle;Signal;HPM_P1;HPM_P2
2023/09/09 00:00:51;;;;;;;18.77;14.02;;;21.80;99.90;;;;;;4959440;28;20157;-79
2023/09/09 00:03:18;;;;;;;18.83;13.65;;;21.80;99.90;;;;;;4977441;28;20493;-79
2023/09/09 00:05:44;;;;;;;17.00;13.55;;;21.70;99.90;;;;;;4959482;28;20027;-80
2023/09/09 00:08:10;;;;;;;17.23;13.07;;;21.70;99.90;;;;;;4960949;28;20089;-81
2023/09/09 00:10:37;;;;;;;14.32;11.85;;;21.70;99.90;;;;;;4978338;28;20040;-81
2023/09/09 00:13:03;;;;;;;18.83;12.50;;;21.70;99.90;;;;;;4979345;28;20014;-81
2023/09/09 00:15:30;;;;;;;23.25;13.70;;;21.70;99.90;;;;;;4963492;28;20019;-81
2023/09/09 00:17:59;;;;;;;16.38;13.00;;;21.60;99.90;;;;;;4960037;28;20390;-81
2023/09/09 00:20:33;;;;;;;18.38;13.70;;;21.50;99.90;;;;;;4963836;28;20029;-78
2023/09/09 00:23:03;;;;;;;24.42;14.73;;;21.40;99.90;;;;;;5119820;23;20137;-80
2023/09/09 00:25:29;;;;;;;17.55;13.55;;;21.40;99.90;;;;;;4992518;28;20031;-80
2023/09/09 00:27:55;;;;;;;24.27;15.07;;;21.30;99.90;;;;;;4982559;28;20018;-77
2023/09/09 00:30:20;;;;;;;17.90;14.23;;;21.30;99.90;;;;;;4977341;28;20017;-81
2023/09/09 00:32:46;;;;;;;22.23;14.95;;;21.20;99.90;;;;;;4981992;28;20092;-80
2023/09/09 00:35:11;;;;;;;20.70;14.23;;;21.20;99.90;;;;;;5002364;28;20498;-81
2023/09/09 00:37:37;;;;;;;17.35;12.45;;;21.20;99.90;;;;;;5004139;28;20036;-77
2023/09/09 00:40:04;;;;;;;19.10;12.68;;;21.20;99.90;;;;;;4999284;28;20374;-77
2023/09/09 00:42:29;;;;;;;16.70;12.02;;;21.30;99.90;;;;;;5003431;28;20593;-78
2023/09/09 00:44:55;;;;;;;17.48;13.10;;;21.30;99.90;;;;;;5001170;28;20219;-77
2023/09/09 00:47:21;;;;;;;20.55;12.50;;;21.30;99.90;;;;;;4986046;28;20693;-79
2023/09/09 00:49:47;;;;;;;20.60;13.30;;;21.40;99.90;;;;;;5002089;28;20110;-81
2023/09/09 00:52:14;;;;;;;16.50;12.52;;;21.40;99.90;;;;;;5000891;28;20053;-79
2023/09/09 00:54:40;;;;;;;15.98;11.35;;;21.40;99.90;;;;;;5121671;23;20515;-82
2023/09/09 00:57:09;;;;;;;15.77;12.38;;;21.40;99.90;;;;;;4978479;28;20037;-80
2023/09/09 00:59:35;;;;;;;16.40;11.90;;;21.30;99.90;;;;;;4975966;28;20034;-80
2023/09/09 01:02:02;;;;;;;17.55;11.77;;;21.30;99.90;;;;;;4977844;28;20088;-80
2023/09/09 01:04:28;;;;;;;14.32;11.77;;;21.30;99.90;;;;;;4962620;28;20057;-80
2023/09/09 01:06:54;;;;;;;18.95;12.23;;;21.30;99.90;;;;;;4978815;28;20513;-79
2023/09/09 01:09:20;;;;;;;21.60;12.70;;;21.20;99.90;;;;;;4961359;28;20065;-80
2023/09/09 01:11:45;;;;;;;19.15;13.45;;;21.20;99.90;;;;;;4962399;28;20019;-80
2023/09/09 01:14:12;;;;;;;19.50;13.55;;;21.20;99.90;;;;;;4977751;28;20543;-80
2023/09/09 01:16:39;;;;;;;19.67;11.82;;;21.20;99.90;;;;;;4958360;28;20033;-79
2023/09/09 01:19:07;;;;;;;14.05;11.82;;;21.20;99.90;;;;;;4977599;28;20128;-79
2023/09/09 01:21:34;;;;;;;17.02;11.75;;;21.20;99.90;;;;;;4959630;28;20030;-79
2023/09/09 01:24:02;;;;;;;19.85;11.88;;;21.30;99.90;;;;;;4978230;28;20038;-79
2023/09/09 01:26:28;;;;;;;17.73;12.93;;;21.30;99.90;;;;;;4978080;28;20034;-79
2023/09/09 01:28:54;;;;;;;18.05;12.10;;;21.20;99.90;;;;;;4961509;28;20023;-78
2023/09/09 01:31:22;;;;;;;19.73;12.15;;;21.20;99.90;;;;;;4967837;28;21610;-81
2023/09/09 01:33:50;;;;;;;20.38;13.45;;;21.30;99.90;;;;;;4979165;28;20048;-81
2023/09/09 01:36:16;;;;;;;19.15;14.40;;;21.20;99.90;;;;;;4958495;28;20034;-82
2023/09/09 01:38:41;;;;;;;18.60;14.57;;;21.20;99.90;;;;;;4959948;28;20093;-79
2023/09/09 01:41:07;;;;;;;19.75;14.32;;;21.10;99.90;;;;;;4979238;28;20482;-80
2023/09/09 01:43:32;;;;;;;19.85;14.75;;;21.10;99.90;;;;;;4962756;28;20089;-80
2023/09/09 01:45:58;;;;;;;18.45;15.38;;;20.90;99.90;;;;;;4975586;28;20030;-82
2023/09/09 01:48:25;;;;;;;19.90;15.90;;;20.90;99.90;;;;;;4977285;28;20021;-80
2023/09/09 01:50:51;;;;;;;22.42;15.60;;;20.80;99.90;;;;;;4977006;28;20057;-80
2023/09/09 01:53:16;;;;;;;23.90;15.18;;;20.80;99.90;;;;;;4973753;28;20498;-80
2023/09/09 01:55:42;;;;;;;27.85;15.85;;;20.80;99.90;;;;;;4977029;28;20035;-79
2023/09/09 01:58:08;;;;;;;22.85;15.07;;;20.80;99.90;;;;;;4976195;28;20065;-82
2023/09/09 02:00:33;;;;;;;23.33;15.95;;;20.70;99.90;;;;;;4961630;28;20148;-82
2023/09/09 02:02:59;;;;;;;25.15;15.18;;;20.70;99.90;;;;;;4976790;28;20395;-80
2023/09/09 02:05:24;;;;;;;20.33;15.57;;;20.70;99.90;;;;;;4977922;28;20018;-80
2023/09/09 02:07:50;;;;;;;28.38;16.67;;;20.60;99.90;;;;;;4961236;28;20113;-80
2023/09/09 02:10:16;;;;;;;29.42;16.58;;;20.60;99.90;;;;;;4976706;28;20097;-80
2023/09/09 02:12:41;;;;;;;25.15;16.15;;;20.50;99.90;;;;;;4957818;28;20026;-80
2023/09/09 02:15:10;;;;;;;24.98;17.45;;;20.50;99.90;;;;;;4961330;28;20019;-80
2023/09/09 02:17:36;;;;;;;24.60;16.38;;;20.50;99.90;;;;;;4976383;28;20030;-79
2023/09/09 02:20:02;;;;;;;21.98;15.60;;;20.40;99.90;;;;;;4978865;28;20034;-82
2023/09/09 02:22:29;;;;;;;22.85;15.88;;;20.30;99.90;;;;;;4960410;28;21016;-82
2023/09/09 02:24:55;;;;;;;21.50;15.73;;;20.30;99.90;;;;;;4977633;28;20018;-82
2023/09/09 02:27:22;;;;;;;19.98;13.70;;;20.40;99.90;;;;;;4976178;28;20023;-82
2023/09/09 02:29:47;;;;;;;28.63;15.13;;;20.40;99.90;;;;;;4974289;28;20026;-81
2023/09/09 02:32:13;;;;;;;26.25;17.00;;;20.30;99.90;;;;;;4979708;28;20096;-82
2023/09/09 02:34:38;;;;;;;25.73;16.48;;;20.30;99.90;;;;;;4980348;28;20033;-81
2023/09/09 02:37:21;;;;;;;23.85;16.58;;;20.30;99.90;;;;;;4961093;28;20014;-81
2023/09/09 02:39:48;;;;;;;25.30;17.60;;;20.30;99.90;;;;;;4977891;28;20898;-81
2023/09/09 02:42:16;;;;;;;23.80;16.23;;;20.20;99.90;;;;;;4958540;28;20862;-81
2023/09/09 02:44:43;;;;;;;23.33;16.48;;;20.30;99.90;;;;;;4976382;28;20026;-82
2023/09/09 02:47:12;;;;;;;32.13;16.33;;;20.30;99.90;;;;;;4976539;28;20022;-81
2023/09/09 02:49:39;;;;;;;21.73;13.98;;;20.40;99.90;;;;;;4981332;28;20026;-81
2023/09/09 02:52:06;;;;;;;25.30;14.38;;;20.40;99.90;;;;;;4981679;28;20053;-82
2023/09/09 02:54:33;;;;;;;17.85;14.10;;;20.40;99.90;;;;;;4978389;28;20034;-81
2023/09/09 02:57:01;;;;;;;23.75;13.65;;;20.40;99.90;;;;;;4964629;28;20070;-81
2023/09/09 02:59:26;;;;;;;20.00;13.50;;;20.40;99.90;;;;;;4980838;28;20477;-83
2023/09/09 03:01:52;;;;;;;21.55;14.98;;;20.30;99.90;;;;;;4963758;28;20035;-81
2023/09/09 03:04:19;;;;;;;18.30;14.27;;;20.30;99.90;;;;;;4963575;28;20485;-81
2023/09/09 03:06:45;;;;;;;17.58;12.82;;;20.20;99.90;;;;;;4981010;28;20022;-81
2023/09/09 03:09:13;;;;;;;20.17;13.75;;;20.30;99.90;;;;;;4981136;28;20154;-80
2023/09/09 03:11:41;;;;;;;16.55;12.85;;;20.30;99.90;;;;;;4978362;28;20014;-80
2023/09/09 03:14:08;;;;;;;21.70;13.85;;;20.20;99.90;;;;;;4980812;28;20491;-79
2023/09/09 03:16:34;;;;;;;35.03;15.85;;;20.30;99.90;;;;;;4975478;28;20980;-80
2023/09/09 03:19:00;;;;;;;21.02;14.95;;;20.20;99.90;;;;;;4980430;28;20128;-79
2023/09/09 03:21:34;;;;;;;22.25;15.20;;;20.20;99.90;;;;;;4979649;28;20482;-80
2023/09/09 03:23:59;;;;;;;22.98;16.05;;;20.10;99.90;;;;;;4974797;28;20035;-79
2023/09/09 03:26:25;;;;;;;25.90;16.52;;;20.10;99.90;;;;;;4981511;28;20030;-79
2023/09/09 03:28:50;;;;;;;23.10;17.10;;;20.00;99.90;;;;;;4977868;28;20029;-79
2023/09/09 03:31:16;;;;;;;21.60;16.80;;;20.00;99.90;;;;;;4979840;28;20027;-78
2023/09/09 03:33:42;;;;;;;21.15;15.63;;;19.90;99.90;;;;;;4979462;28;20125;-79
2023/09/09 03:36:08;;;;;;;25.40;17.08;;;19.80;99.90;;;;;;4982326;28;20026;-79
2023/09/09 03:38:37;;;;;;;29.50;17.88;;;19.70;99.90;;;;;;4979733;28;20046;-78
2023/09/09 03:41:06;;;;;;;29.48;17.58;;;19.70;99.90;;;;;;4962447;28;20525;-78
2023/09/09 03:43:34;;;;;;;24.77;15.88;;;19.60;99.90;;;;;;4980160;28;20636;-78
2023/09/09 03:45:59;;;;;;;26.00;17.35;;;19.70;99.90;;;;;;4980590;28;20407;-79
2023/09/09 03:48:25;;;;;;;24.33;17.27;;;19.70;99.90;;;;;;4978709;28;20026;-78
2023/09/09 03:50:56;;;;;;;30.17;17.48;;;19.70;99.90;;;;;;4980017;28;20438;-78
2023/09/09 03:53:21;;;;;;;23.60;17.25;;;19.70;99.90;;;;;;4959186;28;20031;-78
2023/09/09 03:55:47;;;;;;;27.10;18.02;;;19.70;99.90;;;;;;4976631;28;20100;-78
2023/09/09 03:58:13;;;;;;;26.38;16.35;;;19.70;99.90;;;;;;4969655;28;20038;-80
2023/09/09 04:00:38;;;;;;;23.60;16.75;;;19.70;99.90;;;;;;4975744;28;20376;-78
2023/09/09 04:03:06;;;;;;;22.08;16.15;;;19.70;99.90;;;;;;4958601;28;20058;-79
2023/09/09 04:05:32;;;;;;;26.98;16.73;;;19.70;99.90;;;;;;4978302;28;20478;-80
2023/09/09 04:08:00;;;;;;;27.02;16.88;;;19.70;99.90;;;;;;4980543;28;20053;-80
2023/09/09 04:10:26;;;;;;;21.13;16.67;;;19.80;99.90;;;;;;4977475;28;20034;-79
2023/09/09 04:12:54;;;;;;;25.08;17.20;;;19.80;99.90;;;;;;4961082;28;20313;-80
2023/09/09 04:15:20;;;;;;;22.58;16.52;;;19.80;99.90;;;;;;4958089;28;20143;-79
2023/09/09 04:17:45;;;;;;;23.88;15.52;;;19.90;99.90;;;;;;4978091;28;20031;-79
2023/09/09 04:20:11;;;;;;;20.35;15.02;;;19.90;99.90;;;;;;4961643;28;21526;-82
2023/09/09 04:22:36;;;;;;;22.75;16.20;;;19.90;99.90;;;;;;4977473;28;20038;-79
2023/09/09 04:25:02;;;;;;;26.42;16.27;;;19.90;99.90;;;;;;4978278;28;20093;-79
2023/09/09 04:27:31;;;;;;;25.25;16.38;;;19.90;99.90;;;;;;4961277;28;20386;-79
2023/09/09 04:29:59;;;;;;;22.55;17.40;;;19.90;99.90;;;;;;4978594;28;20022;-79
2023/09/09 04:32:25;;;;;;;23.50;17.00;;;19.80;99.90;;;;;;4975930;28;20019;-79
2023/09/09 04:34:50;;;;;;;25.33;15.63;;;19.80;99.90;;;;;;4961998;28;20042;-79
2023/09/09 04:37:18;;;;;;;32.92;17.95;;;19.70;99.90;;;;;;4975948;28;20026;-79
2023/09/09 04:39:44;;;;;;;25.02;17.10;;;19.70;99.90;;;;;;4976413;28;20038;-80
2023/09/09 04:42:09;;;;;;;23.60;15.95;;;19.70;99.90;;;;;;4960737;28;20556;-80
2023/09/09 04:44:35;;;;;;;21.63;16.13;;;19.70;99.90;;;;;;4956935;28;20030;-79
2023/09/09 04:47:03;;;;;;;26.88;16.02;;;19.70;99.90;;;;;;4972692;28;20035;-79
2023/09/09 04:49:30;;;;;;;24.98;15.65;;;19.70;99.90;;;;;;5117333;23;20675;-81
2023/09/09 04:51:55;;;;;;;21.80;15.82;;;19.70;99.90;;;;;;4982289;28;20526;-80
2023/09/09 04:54:21;;;;;;;18.52;15.02;;;19.70;99.90;;;;;;4982908;28;20026;-80
2023/09/09 04:56:47;;;;;;;24.70;15.88;;;19.70;99.90;;;;;;4982187;28;20050;-81
2023/09/09 04:59:12;;;;;;;20.48;14.85;;;19.70;99.90;;;;;;4982233;28;20049;-80
2023/09/09 05:01:38;;;;;;;21.67;14.68;;;19.80;99.90;;;;;;4983601;28;20545;-79
2023/09/09 05:04:08;;;;;;;23.75;15.43;;;19.70;99.90;;;;;;4981573;28;20026;-78
2023/09/09 05:06:34;;;;;;;19.75;14.23;;;19.80;99.90;;;;;;4983427;28;20050;-79
2023/09/09 05:09:00;;;;;;;20.25;15.13;;;19.70;99.90;;;;;;4965649;28;20022;-79
2023/09/09 05:11:25;;;;;;;20.52;15.02;;;19.70;99.90;;;;;;4981890;28;20030;-80
2023/09/09 05:13:51;;;;;;;25.52;16.85;;;19.70;99.90;;;;;;4983467;28;20026;-80
2023/09/09 05:16:17;;;;;;;29.02;17.85;;;19.70;99.90;;;;;;4983721;28;20859;-79
2023/09/09 05:18:42;;;;;;;96.22;42.08;;;19.70;99.90;;;;;;4967543;28;20092;-83
2023/09/09 05:21:08;;;;;;;31.80;19.02;;;19.60;99.90;;;;;;4984217;28;20551;-78
2023/09/09 05:23:35;;;;;;;27.05;15.45;;;19.70;99.90;;;;;;4961035;28;20040;-80
2023/09/09 05:26:01;;;;;;;20.75;14.93;;;19.70;99.90;;;;;;4984164;28;20029;-80
2023/09/09 05:28:26;;;;;;;24.15;14.30;;;19.70;99.90;;;;;;4982493;28;20532;-82
2023/09/09 05:30:52;;;;;;;32.47;15.63;;;19.70;99.90;;;;;;4966940;28;20030;-80
2023/09/09 05:33:18;;;;;;;22.48;14.98;;;19.70;99.90;;;;;;4980717;28;20065;-80
2023/09/09 05:35:44;;;;;;;25.55;15.63;;;19.80;99.90;;;;;;4966115;28;20037;-82
2023/09/09 05:38:09;;;;;;;19.92;14.68;;;19.80;99.90;;;;;;4984384;28;20410;-79
2023/09/09 05:40:35;;;;;;;23.85;15.15;;;19.80;99.90;;;;;;4978616;28;20061;-84
2023/09/09 05:43:01;;;;;;;18.80;14.13;;;19.90;99.90;;;;;;4987300;28;20026;-81
2023/09/09 05:45:26;;;;;;;24.50;14.60;;;19.90;99.90;;;;;;4967666;28;20018;-80
2023/09/09 05:47:54;;;;;;;17.42;14.27;;;19.90;99.90;;;;;;4982334;28;20033;-80
2023/09/09 05:50:20;;;;;;;20.88;14.88;;;19.90;99.90;;;;;;4983334;28;20582;-80
2023/09/09 05:52:45;;;;;;;19.73;15.02;;;19.90;99.90;;;;;;4959180;28;20105;-80
2023/09/09 05:55:11;;;;;;;21.80;14.27;;;20.00;99.90;;;;;;4982931;28;20156;-80
2023/09/09 05:57:38;;;;;;;20.33;14.80;;;20.00;99.90;;;;;;4965258;28;20133;-82
2023/09/09 06:00:04;;;;;;;23.40;15.45;;;20.10;99.90;;;;;;4966105;28;20022;-82
2023/09/09 06:02:30;;;;;;;28.13;14.88;;;20.10;99.90;;;;;;4982964;28;20038;-82
2023/09/09 06:04:56;;;;;;;19.70;14.15;;;20.10;99.90;;;;;;4982277;28;20014;-82
2023/09/09 06:07:21;;;;;;;24.88;14.50;;;20.10;99.90;;;;;;4967209;28;20019;-82
2023/09/09 06:09:47;;;;;;;19.52;14.05;;;20.20;99.90;;;;;;4982314;28;20112;-82
2023/09/09 06:12:12;;;;;;;23.35;13.93;;;20.20;99.90;;;;;;4966112;28;20073;-82
2023/09/09 06:14:38;;;;;;;24.40;14.15;;;20.30;99.90;;;;;;4983696;28;20105;-81
2023/09/09 06:17:04;;;;;;;24.60;14.18;;;20.30;99.90;;;;;;4983775;28;20073;-82
2023/09/09 06:19:29;;;;;;;19.45;13.18;;;20.40;99.90;;;;;;4983319;28;20117;-82
2023/09/09 06:21:55;;;;;;;20.83;13.50;;;20.40;99.90;;;;;;4982650;28;20431;-82
2023/09/09 06:24:20;;;;;;;23.10;13.77;;;20.40;99.90;;;;;;4982910;28;20026;-82
2023/09/09 06:26:46;;;;;;;20.52;14.35;;;20.40;99.90;;;;;;4984280;28;20022;-82
2023/09/09 06:29:12;;;;;;;21.33;14.25;;;20.40;99.90;;;;;;4966437;28;20039;-83
2023/09/09 06:31:38;;;;;;;19.45;14.68;;;20.50;99.90;;;;;;4984782;28;20109;-81
2023/09/09 06:34:04;;;;;;;23.95;14.25;;;20.40;99.90;;;;;;4984670;28;20491;-82
2023/09/09 06:36:30;;;;;;;21.38;14.48;;;20.50;99.90;;;;;;4965620;28;20027;-83
2023/09/09 06:38:55;;;;;;;23.45;15.60;;;20.50;99.90;;;;;;4987530;28;20178;-81
2023/09/09 06:41:21;;;;;;;23.30;14.85;;;20.60;99.90;;;;;;4983605;28;20027;-83
2023/09/09 06:43:47;;;;;;;23.65;14.80;;;20.60;99.90;;;;;;4984034;28;20447;-82
2023/09/09 06:46:13;;;;;;;21.80;15.63;;;20.70;99.90;;;;;;4982480;28;20042;-81
2023/09/09 06:48:40;;;;;;;21.70;14.90;;;20.80;99.90;;;;;;4983496;28;20031;-81
2023/09/09 06:51:06;;;;;;;23.58;15.30;;;20.80;99.90;;;;;;4982946;28;20061;-81
2023/09/09 06:53:32;;;;;;;23.25;16.52;;;20.90;99.90;;;;;;4965935;28;20065;-82
2023/09/09 06:55:57;;;;;;;22.40;16.58;;;21.00;99.90;;;;;;4983190;28;20030;-81
2023/09/09 06:58:23;;;;;;;23.27;16.10;;;21.10;99.90;;;;;;4984010;28;20033;-81
2023/09/09 07:00:52;;;;;;;24.15;15.75;;;21.10;99.90;;;;;;4983103;28;20128;-82
2023/09/09 07:03:21;;;;;;;25.73;15.00;;;21.30;99.90;;;;;;4982933;28;20025;-79
2023/09/09 07:05:47;;;;;;;26.60;14.95;;;21.40;99.90;;;;;;4966406;28;20033;-80
2023/09/09 07:08:13;;;;;;;28.48;15.73;;;21.50;99.90;;;;;;4983538;28;20038;-82
2023/09/09 07:10:38;;;;;;;22.50;15.20;;;21.60;99.90;;;;;;4983432;28;20022;-81
2023/09/09 07:13:04;;;;;;;21.77;15.75;;;21.70;99.90;;;;;;4983365;28;20413;-82
2023/09/09 07:15:30;;;;;;;22.05;15.95;;;21.70;99.90;;;;;;4982326;28;20067;-82
2023/09/09 07:17:55;;;;;;;21.88;15.73;;;21.80;99.90;;;;;;4982612;28;20034;-79
2023/09/09 07:20:21;;;;;;;22.48;16.42;;;21.80;99.90;;;;;;4983278;28;20029;-79
2023/09/09 07:22:47;;;;;;;20.23;16.45;;;21.90;99.90;;;;;;4963041;28;20035;-80
2023/09/09 07:25:13;;;;;;;24.73;16.27;;;21.90;99.90;;;;;;4980973;28;20689;-81
2023/09/09 07:27:39;;;;;;;23.10;16.27;;;21.90;99.90;;;;;;4982968;28;20478;-82
2023/09/09 07:30:06;;;;;;;25.05;15.90;;;21.90;99.90;;;;;;4982331;28;20031;-81
2023/09/09 07:32:36;;;;;;;28.50;16.40;;;22.00;99.90;;;;;;4978641;28;20057;-82
2023/09/09 07:35:02;;;;;;;22.38;16.98;;;22.10;99.90;;;;;;4985291;28;20045;-81
2023/09/09 07:37:28;;;;;;;26.63;16.52;;;22.10;99.90;;;;;;4966142;28;20524;-82
2023/09/09 07:39:56;;;;;;;21.75;16.98;;;22.20;99.90;;;;;;4985549;28;20034;-81
2023/09/09 07:42:21;;;;;;;23.70;16.20;;;22.30;99.90;;;;;;4981316;28;20023;-82
2023/09/09 07:44:49;;;;;;;23.20;16.48;;;22.40;99.90;;;;;;4985227;28;21163;-81
2023/09/09 07:47:16;;;;;;;25.73;17.25;;;22.50;99.90;;;;;;4988451;28;20195;-81
2023/09/09 07:49:41;;;;;;;22.75;15.77;;;22.60;99.90;;;;;;4968148;28;20074;-81
2023/09/09 07:52:07;;;;;;;23.00;17.75;;;22.60;99.90;;;;;;4986555;28;20031;-81
2023/09/09 07:54:32;;;;;;;23.33;16.48;;;22.80;99.90;;;;;;4986094;28;20035;-82
2023/09/09 07:57:04;;;;;;;24.00;17.23;;;22.80;99.90;;;;;;4985460;28;20030;-80
2023/09/09 07:59:30;;;;;;;22.25;16.52;;;22.90;99.90;;;;;;4966421;28;20030;-80
2023/09/09 08:01:58;;;;;;;24.95;16.65;;;22.90;99.90;;;;;;4986926;28;20501;-80
2023/09/09 08:04:24;;;;;;;31.63;17.83;;;23.00;99.90;;;;;;4982561;28;20033;-79
2023/09/09 08:06:52;;;;;;;35.08;18.27;;;23.00;99.90;;;;;;4985627;28;20027;-80
2023/09/09 08:09:20;;;;;;;25.92;18.70;;;23.10;99.90;;;;;;4959093;28;20049;-80
2023/09/09 08:11:46;;;;;;;30.33;20.15;;;23.30;99.90;;;;;;4964622;28;20038;-80
2023/09/09 08:14:13;;;;;;;32.83;22.10;;;23.30;99.90;;;;;;5118498;23;20093;-78
2023/09/09 08:16:39;;;;;;;41.85;20.77;;;23.30;99.90;;;;;;4971112;28;20019;-81
2023/09/09 08:19:04;;;;;;;35.55;22.42;;;23.30;99.90;;;;;;4968728;28;20039;-83
2023/09/09 08:21:30;;;;;;;29.15;22.23;;;23.40;99.90;;;;;;4966442;28;20483;-81
2023/09/09 08:24:00;;;;;;;36.08;23.27;;;23.40;99.90;;;;;;4950690;28;20034;-81
2023/09/09 08:26:26;;;;;;;33.90;24.55;;;23.50;99.90;;;;;;4950433;28;20030;-80
2023/09/09 08:28:52;;;;;;;36.60;24.52;;;23.70;99.90;;;;;;4956894;28;20038;-80
2023/09/09 08:31:17;;;;;;;35.42;22.35;;;23.80;99.90;;;;;;4950460;28;20561;-87
2023/09/09 08:33:43;;;;;;;33.22;23.48;;;23.90;99.90;;;;;;4954679;28;20077;-78
2023/09/09 08:36:09;;;;;;;33.13;23.52;;;24.00;99.90;;;;;;4954304;28;20054;-78
2023/09/09 08:38:36;;;;;;;31.40;23.98;;;24.20;99.90;;;;;;4967766;28;20046;-78
2023/09/09 08:41:22;;;;;;;41.88;26.83;;;24.40;99.90;;;;;;4967720;28;20160;-79
2023/09/09 08:44:07;;;;;;;35.83;24.85;;;24.30;99.90;;;;;;4969679;28;20025;-82
2023/09/09 08:46:33;;;;;;;35.75;24.63;;;24.50;99.90;;;;;;4967999;28;20255;-82
2023/09/09 08:49:02;;;;;;;37.83;28.33;;;24.70;99.90;;;;;;4969711;28;20022;-78
2023/09/09 08:52:14;;;;;;;47.70;31.50;;;24.80;99.90;;;;;;4965374;28;20648;-82
2023/09/09 08:54:40;;;;;;;40.67;29.75;;;24.90;99.90;;;;;;4934903;28;20030;-83
2023/09/09 08:57:06;;;;;;;43.60;30.60;;;24.90;99.90;;;;;;4969686;28;20569;-85
2023/09/09 08:59:33;;;;;;;59.20;32.42;;;25.10;99.90;;;;;;4969900;28;20407;-81
2023/09/09 09:02:03;;;;;;;42.92;30.42;;;25.30;99.90;;;;;;4952896;28;20090;-84
2023/09/09 09:04:32;;;;;;;45.70;31.23;;;25.40;99.90;;;;;;4957032;28;20023;-83
2023/09/09 09:07:00;;;;;;;49.20;34.17;;;25.80;99.90;;;;;;4952822;28;20094;-84
2023/09/09 09:09:25;;;;;;;44.22;32.30;;;26.30;99.90;;;;;;4967639;28;20039;-80
2023/09/09 09:11:52;;;;;;;44.65;32.75;;;26.60;99.80;;;;;;4969299;28;20893;-82
2023/09/09 09:14:18;;;;;;;55.28;32.72;;;26.80;98.70;;;;;;4958364;28;20026;-86
2023/09/09 09:16:44;;;;;;;45.30;31.08;;;27.20;98.30;;;;;;4959348;28;20054;-89
2023/09/09 09:19:36;;;;;;;;;;;;;;;;;;;;;
2023/09/09 09:22:06;;;;;;;46.23;32.67;;;27.80;97.40;;;;;;4971798;28;20045;-82
2023/09/09 09:25:10;;;;;;;;;;;;;;;;;;;;;
2023/09/09 09:30:52;;;;;;;49.05;33.20;;;28.50;94.30;;;;;;4905005;29;20039;-82
2023/09/09 09:33:32;;;;;;;45.38;31.90;;;28.60;93.30;;;;;;4970565;28;20098;-81
2023/09/09 09:39:06;;;;;;;46.90;34.65;;;29.20;92.00;;;;;;4971999;28;20042;-81
2023/09/09 09:44:26;;;;;;;47.60;34.53;;;29.50;91.30;;;;;;4956823;28;20060;-81
2023/09/09 09:47:21;;;;;;;41.05;30.55;;;29.40;90.30;;;;;;4981136;28;20555;-80
2023/09/09 09:54:17;;;;;;;;;;;;;;;;;;;;;
2023/09/09 10:02:48;;;;;;;55.03;37.05;;;28.90;86.90;;;;;;4981412;28;20034;-80
2023/09/09 10:05:44;;;;;;;;;;;;;;;;;;;;;
2023/09/09 10:08:39;;;;;;;47.70;31.85;;;28.40;90.40;;;;;;4974514;28;20364;-83
2023/09/09 10:11:21;;;;;;;54.78;38.10;;;28.90;88.10;;;;;;4981999;28;20030;-87
2023/09/09 10:14:01;;;;;;;52.13;37.00;;;29.00;87.30;;;;;;4965128;28;20064;-88
2023/09/09 10:20:08;;;;;;;48.17;35.33;;;28.90;88.40;;;;;;4898740;29;20048;-83
2023/09/09 10:22:36;;;;;;;55.28;39.55;;;29.40;88.50;;;;;;4964991;28;20026;-83
2023/09/09 10:25:10;;;;;;;52.28;38.70;;;29.60;87.30;;;;;;4972059;28;20407;-84
2023/09/09 10:27:39;;;;;;;55.78;38.47;;;29.70;88.70;;;;;;4963662;28;20739;-83
2023/09/09 10:30:11;;;;;;;55.70;38.22;;;30.00;87.40;;;;;;4963227;28;20050;-83
2023/09/09 10:32:38;;;;;;;55.63;38.28;;;29.90;86.90;;;;;;4960875;28;20089;-86
2023/09/09 10:35:07;;;;;;;45.20;33.13;;;29.90;84.40;;;;;;4967455;28;20034;-87
2023/09/09 10:37:37;;;;;;;46.50;32.22;;;30.20;83.90;;;;;;4980524;28;20038;-87
2023/09/09 10:40:07;;;;;;;55.75;39.65;;;30.50;84.30;;;;;;4968290;28;20138;-87
2023/09/09 10:42:37;;;;;;;62.20;40.40;;;30.40;83.60;;;;;;4972478;28;20463;-87
2023/09/09 10:45:22;;;;;;;54.53;38.90;;;30.30;82.70;;;;;;4994202;28;20031;-84
2023/09/09 10:48:20;;;;;;;46.80;36.30;;;30.30;83.20;;;;;;4983278;28;20693;-86
2023/09/09 10:50:49;;;;;;;47.88;34.95;;;30.50;82.70;;;;;;4964173;28;20045;-83
2023/09/09 10:53:22;;;;;;;47.47;33.58;;;30.30;81.50;;;;;;4972673;28;20036;-84
2023/09/09 10:55:51;;;;;;;41.10;30.13;;;30.50;81.10;;;;;;4980807;28;20455;-87
2023/09/09 10:58:18;;;;;;;41.03;28.83;;;30.80;81.10;;;;;;4972212;28;20039;-83
2023/09/09 11:00:46;;;;;;;44.70;32.75;;;30.90;78.60;;;;;;4962110;28;20034;-82
2023/09/09 11:03:22;;;;;;;48.00;34.35;;;30.80;78.30;;;;;;4962576;28;20125;-82
2023/09/09 11:06:05;;;;;;;42.65;31.38;;;30.90;78.60;;;;;;4979516;28;20086;-82
2023/09/09 11:08:47;;;;;;;42.63;32.28;;;30.60;78.10;;;;;;4959770;28;20124;-83
2023/09/09 11:11:18;;;;;;;44.60;30.80;;;30.30;80.00;;;;;;4961971;28;20029;-83
2023/09/09 11:13:46;;;;;;;43.78;29.70;;;30.20;79.90;;;;;;4983444;28;20057;-84
2023/09/09 11:16:27;;;;;;;34.92;27.10;;;30.30;79.30;;;;;;4983345;28;20101;-83
2023/09/09 11:18:53;;;;;;;41.33;31.65;;;30.60;77.70;;;;;;4964152;28;20039;-80
2023/09/09 11:21:23;;;;;;;49.45;33.60;;;30.10;78.00;;;;;;4953500;28;20519;-82
2023/09/09 11:23:52;;;;;;;39.92;28.52;;;30.10;79.30;;;;;;4957928;28;20113;-81
2023/09/09 11:26:19;;;;;;;37.75;29.77;;;30.40;80.00;;;;;;4963021;28;20023;-81
2023/09/09 11:28:47;;;;;;;41.45;31.25;;;30.90;78.40;;;;;;4955311;28;20030;-83
2023/09/09 11:31:16;;;;;;;39.53;30.30;;;31.20;77.10;;;;;;4959966;28;20089;-83
2023/09/09 11:33:42;;;;;;;37.55;28.98;;;31.10;76.00;;;;;;4951138;28;20578;-81
2023/09/09 11:36:08;;;;;;;48.42;32.33;;;31.10;78.40;;;;;;4946408;28;20101;-79
2023/09/09 11:38:35;;;;;;;44.03;31.58;;;31.20;76.90;;;;;;4960936;28;20333;-80
2023/09/09 11:41:00;;;;;;;34.72;25.25;;;31.40;76.80;;;;;;4957096;28;20039;-80
2023/09/09 11:43:28;;;;;;;28.83;24.15;;;31.60;74.80;;;;;;4952117;28;20019;-79
2023/09/09 11:45:56;;;;;;;36.00;25.77;;;31.70;74.10;;;;;;4938726;28;20043;-81
2023/09/09 11:48:23;;;;;;;33.60;28.95;;;31.60;73.90;;;;;;4955234;28;20051;-80
2023/09/09 11:50:49;;;;;;;30.02;24.45;;;31.70;73.50;;;;;;4952829;28;20034;-88
2023/09/09 11:53:15;;;;;;;27.55;20.08;;;31.80;74.60;;;;;;4945819;28;20035;-83
2023/09/09 11:55:41;;;;;;;27.85;20.67;;;31.90;72.90;;;;;;4940286;28;20058;-82
2023/09/09 11:58:06;;;;;;;20.10;17.33;;;31.70;71.00;;;;;;4942989;28;20407;-90
2023/09/09 12:00:34;;;;;;;23.05;17.92;;;31.70;73.80;;;;;;4948327;28;20034;-87
2023/09/09 12:03:00;;;;;;;22.90;14.90;;;31.70;71.00;;;;;;4951601;28;20031;-89
2023/09/09 12:05:30;;;;;;;21.70;18.17;;;31.60;72.80;;;;;;4959621;28;20073;-90
2023/09/09 12:08:01;;;;;;;23.75;16.65;;;31.80;69.80;;;;;;4945191;28;20034;-88
2023/09/09 12:10:31;;;;;;;17.33;14.52;;;31.90;68.80;;;;;;4925194;28;20066;-86
2023/09/09 12:12:57;;;;;;;25.52;15.65;;;31.80;69.20;;;;;;4960709;28;20074;-88
2023/09/09 12:15:23;;;;;;;21.42;13.70;;;31.40;69.30;;;;;;4949451;28;20034;-87
2023/09/09 12:17:49;;;;;;;14.50;13.00;;;31.60;67.60;;;;;;4945346;28;20125;-88
2023/09/09 12:20:16;;;;;;;17.80;14.35;;;31.70;66.80;;;;;;4942305;28;20094;-88
2023/09/09 12:22:47;;;;;;;19.30;14.73;;;32.00;66.50;;;;;;4944426;28;20073;-89
2023/09/09 12:25:28;;;;;;;18.33;12.85;;;32.10;65.00;;;;;;4945987;28;20541;-90
2023/09/09 12:27:53;;;;;;;15.95;14.15;;;32.00;66.30;;;;;;4959302;28;20038;-88
2023/09/09 12:30:35;;;;;;;18.75;14.20;;;32.00;64.30;;;;;;4947690;28;20019;-86
2023/09/09 12:33:06;;;;;;;15.60;12.65;;;31.70;64.80;;;;;;4958826;28;20027;-88
2023/09/09 12:35:36;;;;;;;16.95;13.50;;;32.00;65.40;;;;;;4942357;28;20039;-86
2023/09/09 12:38:03;;;;;;;18.83;13.93;;;32.10;65.00;;;;;;4947997;28;20039;-85
2023/09/09 12:40:42;;;;;;;16.58;12.70;;;31.90;63.00;;;;;;4946703;28;20043;-87
2023/09/09 12:43:12;;;;;;;17.23;14.82;;;32.10;63.30;;;;;;4946864;28;20062;-88
2023/09/09 12:46:05;;;;;;;13.15;11.68;;;32.10;63.00;;;;;;4971141;28;20032;-88
2023/09/09 12:48:32;;;;;;;;;;;32.60;64.70;;;;;;4950662;28;20051;-87
2023/09/09 12:50:58;;;;;;;15.85;14.10;;;32.80;62.30;;;;;;4940849;28;19917;-90
2023/09/09 12:53:23;;;;;;;17.50;13.02;;;32.50;60.20;;;;;;4949670;28;20039;-90
2023/09/09 12:55:49;;;;;;;14.70;12.85;;;32.30;61.00;;;;;;4958175;28;20023;-89
2023/09/09 12:58:15;;;;;;;14.65;11.45;;;32.00;62.50;;;;;;4960823;28;20480;-89
2023/09/09 13:00:41;;;;;;;13.30;11.10;;;32.20;63.50;;;;;;4965159;28;20041;-90